KHOP/HOP METAR and TAF weather

Enter ICAO airport designator
Station Type Date Time Source
KHOP METAR 2023/01/30 11:25 UTC NOAA

KHOP 301125Z AUTO 33005KT 6SM BR OVC003 03/03 A3017 RMK AO2 SLP221


Station Type Date Time Source
KHOP Decoded METAR 2023/01/30 11:25 UTC NOAA

Fort Campbell U. S. Army Airfield, KY, United States (KHOP) 36-40N 087-30W 174M
Jan 30, 2023 - 06:25 AM EST / 2023.01.30 1125 UTC
Wind: from the NNW (330 degrees) at 6 MPH (5 KT):0
Visibility: 6 mile(s):0
Sky conditions: overcast
Weather: mist
Temperature: 37 F (3 C)
Dew Point: 37 F (3 C)
Relative Humidity: 100%
Pressure (altimeter): 30.17 in. Hg (1021 hPa)
ob: KHOP 301125Z AUTO 33005KT 6SM BR OVC003 03/03 A3017 RMK AO2 SLP221
cycle: 11

Station Type Date Time Source
KHOP TAF 2023/01/30 08:06 UTC NOAA

TAF KHOP 300800Z 3008/3114 34006KT 8000 BR OVC004 520853 QNH3012INS
BECMG 3011/3012 34006KT 8000 BR OVC005 QNH3016INS
BECMG 3017/3018 35009KT 9999 NSW OVC010 QNH3022INS
BECMG 3020/3021 36010G15KT 9999 OVC007 QNH3022INS
BECMG 3102/3103 01012KT 9000 -FZRA OVC010 690001 510013 QNH3028INS TX04/3009Z TNM02/3108Z

Example: see airport list